createdAt,value
2023-02-17T00:01:28.625Z,91.34
2023-02-17T00:06:32.561Z,91.56
2023-02-17T00:11:36.209Z,91.65
2023-02-17T00:16:40.643Z,91.61
2023-02-17T00:21:43.942Z,91.99
2023-02-17T00:26:47.456Z,92.06
2023-02-17T00:31:53.107Z,91.94
2023-02-17T00:36:56.784Z,91.94
2023-02-17T00:42:00.365Z,92.15
2023-02-17T00:47:03.881Z,92.30
2023-02-17T00:52:07.395Z,92.34
2023-02-17T00:57:11.323Z,92.35
2023-02-17T01:02:14.735Z,92.60
2023-02-17T01:07:18.260Z,92.45
2023-02-17T01:12:22.380Z,92.49
2023-02-17T01:17:25.799Z,92.48
2023-02-17T01:22:29.923Z,92.76
2023-02-17T01:27:33.444Z,92.80
2023-02-17T01:32:37.677Z,92.97
2023-02-17T01:37:41.091Z,92.93
2023-02-17T01:42:44.697Z,93.21
2023-02-17T01:47:50.465Z,93.33
2023-02-17T01:52:55.339Z,93.53
2023-02-17T01:58:01.795Z,93.67
2023-02-17T02:03:09.111Z,93.68
2023-02-17T02:08:13.539Z,93.82
2023-02-17T02:13:16.846Z,93.53
2023-02-17T02:18:41.050Z,93.85
2023-02-17T02:24:21.430Z,93.99
2023-02-17T02:29:53.974Z,94.24
2023-02-17T02:35:11.270Z,94.31
2023-02-17T02:40:17.041Z,94.46
2023-02-17T02:45:21.686Z,94.49
2023-02-17T02:50:43.731Z,94.50
2023-02-17T02:56:06.619Z,94.42
2023-02-17T03:01:19.969Z,94.65
2023-02-17T03:06:38.101Z,94.69
2023-02-17T03:11:42.462Z,94.76
2023-02-17T03:16:46.501Z,94.84
2023-02-17T03:22:01.552Z,95.02
2023-02-17T03:27:05.067Z,95.37
2023-02-17T03:32:08.873Z,95.37
2023-02-17T03:37:12.402Z,95.38
2023-02-17T03:42:16.527Z,95.63
2023-02-17T03:47:20.048Z,95.59
2023-02-17T03:52:23.572Z,95.65
2023-02-17T03:57:27.078Z,95.67
2023-02-17T04:02:30.497Z,95.85
2023-02-17T04:07:34.004Z,95.55
2023-02-17T04:12:37.633Z,95.64
2023-02-17T04:17:40.932Z,95.73
2023-02-17T04:22:46.600Z,95.70
2023-02-17T04:27:50.009Z,95.58
2023-02-17T04:32:53.423Z,95.80
2023-02-17T04:37:57.043Z,95.80
2023-02-17T04:43:00.562Z,95.89
2023-02-17T04:48:04.290Z,95.69
2023-02-17T04:53:08.517Z,95.72
2023-02-17T04:58:11.821Z,95.79
2023-02-17T05:03:15.444Z,96.00
2023-02-17T05:08:19.059Z,95.91
2023-02-17T05:13:22.370Z,95.65
2023-02-17T05:18:25.886Z,95.88
2023-02-17T05:23:29.399Z,95.93
2023-02-17T05:28:32.810Z,95.92
2023-02-17T05:33:37.157Z,96.21
2023-02-17T05:38:41.072Z,96.18
2023-02-17T05:43:44.999Z,96.30
2023-02-17T05:48:48.824Z,96.13
2023-02-17T05:53:52.130Z,96.22
2023-02-17T05:58:55.657Z,96.19
2023-02-17T06:03:59.164Z,96.13
2023-02-17T06:09:02.689Z,95.95
2023-02-17T06:14:06.097Z,96.05
2023-02-17T06:19:09.510Z,96.56
2023-02-17T06:24:12.820Z,96.33
2023-02-17T06:29:16.236Z,96.43
2023-02-17T06:34:19.844Z,96.45
2023-02-17T06:39:23.565Z,96.24
2023-02-17T06:44:27.288Z,96.36
2023-02-17T06:49:30.700Z,96.51
2023-02-17T06:54:34.109Z,96.61
2023-02-17T06:59:37.525Z,96.57
2023-02-17T07:04:42.063Z,96.46
2023-02-17T07:09:45.581Z,96.49
2023-02-17T07:14:49.001Z,96.71
2023-02-17T07:19:52.517Z,96.60
2023-02-17T07:24:56.036Z,96.57
2023-02-17T07:29:59.717Z,96.46
2023-02-17T07:35:03.372Z,96.23
2023-02-17T07:40:07.903Z,96.40
2023-02-17T07:45:11.007Z,96.64
2023-02-17T07:50:14.630Z,96.52
2023-02-17T07:55:18.140Z,96.52
2023-02-17T08:00:22.070Z,96.66
2023-02-17T08:05:25.476Z,96.60
2023-02-17T08:10:47.732Z,96.82
2023-02-17T08:15:51.159Z,96.71
2023-02-17T08:20:54.665Z,96.73
2023-02-17T08:25:59.519Z,97.38
2023-02-17T08:31:03.432Z,97.13
2023-02-17T08:36:08.501Z,97.16
2023-02-17T08:41:18.246Z,97.04
2023-02-17T08:46:22.230Z,97.05
2023-02-17T08:51:26.258Z,97.27
2023-02-17T08:56:31.230Z,97.28
2023-02-17T09:01:36.342Z,97.34
2023-02-17T09:06:42.480Z,97.40
2023-02-17T09:11:46.004Z,97.27
2023-02-17T09:16:50.943Z,97.47
2023-02-17T09:21:54.791Z,96.93
2023-02-17T09:26:58.211Z,97.05
2023-02-17T09:32:01.855Z,97.27
2023-02-17T09:37:11.473Z,97.10
2023-02-17T09:42:24.915Z,97.03
2023-02-17T09:47:53.411Z,96.82
2023-02-17T09:53:03.382Z,96.73
2023-02-17T09:58:17.731Z,96.88
2023-02-17T10:03:31.336Z,96.75
2023-02-17T10:08:45.980Z,96.81
2023-02-17T10:13:51.374Z,96.96
2023-02-17T10:19:01.463Z,96.65
2023-02-17T10:24:05.337Z,96.72
2023-02-17T10:29:20.838Z,96.88
2023-02-17T10:34:51.574Z,96.57
2023-02-17T10:39:58.881Z,96.11
2023-02-17T10:45:06.806Z,96.10
2023-02-17T10:50:25.372Z,96.13
2023-02-17T10:55:39.753Z,95.59
2023-02-17T11:00:43.715Z,95.83
2023-02-17T11:05:58.147Z,95.94
2023-02-17T11:11:30.626Z,96.30
2023-02-17T11:16:40.199Z,96.43
2023-02-17T11:21:44.500Z,96.33
2023-02-17T11:27:02.997Z,96.32
2023-02-17T11:32:11.262Z,96.12
2023-02-17T11:37:14.530Z,96.13
2023-02-17T11:42:29.286Z,95.90
2023-02-17T11:47:49.896Z,95.58
2023-02-17T11:53:18.127Z,95.93
2023-02-17T11:58:30.744Z,95.85
2023-02-17T12:04:03.549Z,95.86
2023-02-17T12:09:20.781Z,95.82
2023-02-17T12:14:45.904Z,95.73
2023-02-17T12:20:15.977Z,95.28
2023-02-17T12:25:32.055Z,95.34
2023-02-17T12:31:02.977Z,95.34
2023-02-17T12:36:13.084Z,95.35
2023-02-17T12:41:35.950Z,95.42
2023-02-17T12:46:43.866Z,95.36
2023-02-17T12:51:59.568Z,95.45
2023-02-17T12:57:14.978Z,95.53
2023-02-17T13:02:24.073Z,95.41
2023-02-17T13:07:44.630Z,95.65
2023-02-17T13:13:28.087Z,95.66
2023-02-17T13:18:37.846Z,96.01
2023-02-17T13:23:43.769Z,96.16
2023-02-17T13:28:48.577Z,96.16
2023-02-17T13:33:57.405Z,96.18
2023-02-17T13:39:26.922Z,96.26
2023-02-17T13:44:32.075Z,96.40
2023-02-17T13:49:35.697Z,96.36
2023-02-17T13:54:39.311Z,96.42
2023-02-17T13:59:42.933Z,96.52
2023-02-17T14:04:46.885Z,96.86
2023-02-17T14:09:55.105Z,96.63
2023-02-17T14:14:58.595Z,96.80
2023-02-17T14:20:02.220Z,96.78
2023-02-17T14:25:26.525Z,96.85
2023-02-17T14:30:39.663Z,96.88
2023-02-17T14:36:04.024Z,97.03
2023-02-17T14:41:12.082Z,97.31
2023-02-17T14:46:19.710Z,97.22
2023-02-17T14:51:26.296Z,97.23
2023-02-17T14:56:38.811Z,97.44
2023-02-17T15:01:42.258Z,97.03
2023-02-17T15:06:50.871Z,97.29
2023-02-17T15:11:54.582Z,97.35
2023-02-17T15:16:57.898Z,96.94
2023-02-17T15:22:03.779Z,96.70
2023-02-17T15:27:07.896Z,96.75
2023-02-17T15:32:20.719Z,96.97
2023-02-17T15:37:25.779Z,97.06
2023-02-17T15:42:29.501Z,97.15
2023-02-17T15:47:33.010Z,97.28
2023-02-17T15:52:36.527Z,97.41
2023-02-17T15:57:48.865Z,97.38
2023-02-17T16:02:53.565Z,97.83
2023-02-17T16:07:57.208Z,97.70
2023-02-17T16:13:02.159Z,97.88
2023-02-17T16:18:06.604Z,98.28
2023-02-17T16:23:10.009Z,98.28
2023-02-17T16:28:21.685Z,98.25
2023-02-17T16:33:25.241Z,98.50
2023-02-17T16:38:30.287Z,98.63
2023-02-17T16:43:35.032Z,98.83
2023-02-17T16:48:42.554Z,98.86
2023-02-17T16:53:46.068Z,98.93
2023-02-17T16:58:49.571Z,99.19
2023-02-17T17:03:53.260Z,99.40
2023-02-17T17:08:57.212Z,99.43
2023-02-17T17:14:00.840Z,99.89
2023-02-17T17:19:04.551Z,99.99
2023-02-17T17:24:07.967Z,100.00
2023-02-17T17:29:16.846Z,100.00
2023-02-17T17:34:20.433Z,100.00
2023-02-17T17:39:24.657Z,100.00
2023-02-17T17:44:28.685Z,100.00
2023-02-17T17:49:32.612Z,100.00
2023-02-17T17:54:36.449Z,100.00
2023-02-17T17:59:40.360Z,100.00
2023-02-17T18:04:43.814Z,100.00
2023-02-17T18:09:47.599Z,100.00
2023-02-17T18:14:54.734Z,100.00
2023-02-17T18:19:58.419Z,100.00
2023-02-17T18:25:01.833Z,100.00
2023-02-17T18:30:06.814Z,100.00
2023-02-17T18:35:13.579Z,100.00
2023-02-17T18:40:18.105Z,100.00
2023-02-17T18:45:21.931Z,100.00
2023-02-17T18:50:26.670Z,100.00
2023-02-17T18:55:30.088Z,100.00
2023-02-17T19:00:33.705Z,100.00
2023-02-17T19:05:37.434Z,100.00
2023-02-17T19:10:40.832Z,100.00
2023-02-17T19:15:44.357Z,100.00
2023-02-17T19:20:47.961Z,100.00
2023-02-17T19:25:51.582Z,100.00
2023-02-17T19:30:58.516Z,100.00
2023-02-17T19:36:16.646Z,100.00
2023-02-17T19:41:20.257Z,100.00
2023-02-17T19:46:25.980Z,100.00
2023-02-17T19:51:29.849Z,100.00
2023-02-17T19:56:35.445Z,100.00
2023-02-17T20:01:41.161Z,100.00
2023-02-17T20:06:48.382Z,100.00
2023-02-17T20:11:53.443Z,100.00
2023-02-17T20:16:57.264Z,100.00
2023-02-17T20:22:01.403Z,100.00
2023-02-17T20:27:05.003Z,100.00
2023-02-17T20:32:08.857Z,100.00
2023-02-17T20:37:12.550Z,100.00
2023-02-17T20:42:16.369Z,100.00
2023-02-17T20:47:19.885Z,100.00
2023-02-17T20:52:23.407Z,100.00
2023-02-17T20:57:28.459Z,100.00
2023-02-17T21:02:32.094Z,100.00
2023-02-17T21:07:35.592Z,100.00
2023-02-17T21:12:39.106Z,100.00
2023-02-17T21:17:43.036Z,100.00
2023-02-17T21:22:47.061Z,100.00
2023-02-17T21:27:50.582Z,99.10
2023-02-17T21:32:55.629Z,98.66
2023-02-17T21:37:59.245Z,99.16
2023-02-17T21:43:21.401Z,99.33
2023-02-17T21:48:25.321Z,98.87
2023-02-17T21:53:28.832Z,98.02
2023-02-17T21:58:33.136Z,97.03
2023-02-17T22:03:36.476Z,96.13
2023-02-17T22:08:40.093Z,95.11
2023-02-17T22:13:43.816Z,94.01
2023-02-17T22:18:47.436Z,93.17
2023-02-17T22:23:51.460Z,92.17
2023-02-17T22:28:55.394Z,90.60
2023-02-17T22:34:01.419Z,90.03
2023-02-17T22:39:06.821Z,88.93
2023-02-17T22:44:10.642Z,88.51
2023-02-17T22:49:14.259Z,86.90
2023-02-17T22:54:17.884Z,86.78
2023-02-17T22:59:21.395Z,86.60
2023-02-17T23:04:25.030Z,86.08
2023-02-17T23:09:28.632Z,86.22
2023-02-17T23:14:39.058Z,86.29
2023-02-17T23:19:42.832Z,86.86
2023-02-17T23:24:47.894Z,87.13
2023-02-17T23:29:51.606Z,87.35
2023-02-17T23:34:55.137Z,88.04
2023-02-17T23:39:58.943Z,88.31
2023-02-17T23:45:02.360Z,88.59
2023-02-17T23:50:07.146Z,88.46
2023-02-17T23:55:10.927Z,88.78
